sensor_id;sensor_type;location;lat;lon;timestamp;pressure;altitude;pressure_sealevel;temperature;humidity
65897;BME280;52677;50.898;10.854;2023-05-29T00:00:17;98834.13;;;7.99;100.00
65897;BME280;52677;50.898;10.854;2023-05-29T00:02:17;98822.44;;;7.90;100.00
65897;BME280;52677;50.898;10.854;2023-05-29T00:04:18;98829.81;;;7.86;100.00
65897;BME280;52677;50.898;10.854;2023-05-29T00:06:19;98833.88;;;7.76;100.00
65897;BME280;52677;50.898;10.854;2023-05-29T00:08:19;98838.50;;;7.72;100.00
65897;BME280;52677;50.898;10.854;2023-05-29T00:10:19;98835.16;;;7.67;100.00
65897;BME280;52677;50.898;10.854;2023-05-29T00:12:20;98831.25;;;7.68;100.00
65897;BME280;52677;50.898;10.854;2023-05-29T00:14:21;98834.34;;;7.78;100.00
65897;BME280;52677;50.898;10.854;2023-05-29T00:16:23;98830.44;;;7.79;100.00
65897;BME280;52677;50.898;10.854;2023-05-29T00:18:26;98833.19;;;7.79;100.00
65897;BME280;52677;50.898;10.854;2023-05-29T00:20:27;98837.41;;;7.77;100.00
65897;BME280;52677;50.898;10.854;2023-05-29T00:22:27;98822.16;;;7.79;100.00
65897;BME280;52677;50.898;10.854;2023-05-29T00:24:27;98829.44;;;7.72;100.00
65897;BME280;52677;50.898;10.854;2023-05-29T00:26:28;98820.44;;;7.75;100.00
65897;BME280;52677;50.898;10.854;2023-05-29T00:28:28;98822.31;;;7.71;100.00
65897;BME280;52677;50.898;10.854;2023-05-29T00:30:28;98828.16;;;7.69;100.00
65897;BME280;52677;50.898;10.854;2023-05-29T00:32:29;98823.59;;;7.61;100.00
65897;BME280;52677;50.898;10.854;2023-05-29T00:34:29;98823.94;;;7.59;100.00
65897;BME280;52677;50.898;10.854;2023-05-29T00:36:29;98815.59;;;7.56;100.00
65897;BME280;52677;50.898;10.854;2023-05-29T00:38:31;98823.75;;;7.52;100.00
65897;BME280;52677;50.898;10.854;2023-05-29T00:40:32;98821.59;;;7.46;100.00
65897;BME280;52677;50.898;10.854;2023-05-29T00:42:32;98820.25;;;7.40;100.00
65897;BME280;52677;50.898;10.854;2023-05-29T00:44:32;98821.63;;;7.33;100.00
65897;BME280;52677;50.898;10.854;2023-05-29T00:46:33;98833.13;;;7.23;100.00
65897;BME280;52677;50.898;10.854;2023-05-29T00:48:33;98836.09;;;7.18;100.00
65897;BME280;52677;50.898;10.854;2023-05-29T00:50:34;98844.97;;;7.12;100.00
65897;BME280;52677;50.898;10.854;2023-05-29T00:52:35;98846.44;;;7.09;100.00
65897;BME280;52677;50.898;10.854;2023-05-29T00:54:35;98838.06;;;7.18;100.00
65897;BME280;52677;50.898;10.854;2023-05-29T00:56:37;98827.63;;;7.23;100.00
65897;BME280;52677;50.898;10.854;2023-05-29T00:58:38;98838.28;;;7.25;100.00
65897;BME280;52677;50.898;10.854;2023-05-29T01:00:39;98843.06;;;7.28;100.00
65897;BME280;52677;50.898;10.854;2023-05-29T01:02:41;98842.53;;;7.22;100.00
65897;BME280;52677;50.898;10.854;2023-05-29T01:04:45;98842.88;;;7.21;100.00
65897;BME280;52677;50.898;10.854;2023-05-29T01:06:45;98850.00;;;7.22;100.00
65897;BME280;52677;50.898;10.854;2023-05-29T01:08:45;98847.47;;;7.17;100.00
65897;BME280;52677;50.898;10.854;2023-05-29T01:10:46;98852.38;;;7.11;100.00
65897;BME280;52677;50.898;10.854;2023-05-29T01:15:08;98855.63;;;7.13;100.00
65897;BME280;52677;50.898;10.854;2023-05-29T01:22:30;98849.19;;;7.21;100.00
65897;BME280;52677;50.898;10.854;2023-05-29T01:24:49;98854.91;;;7.16;100.00
65897;BME280;52677;50.898;10.854;2023-05-29T01:27:03;98856.53;;;7.05;100.00
65897;BME280;52677;50.898;10.854;2023-05-29T01:29:07;98852.97;;;6.92;100.00
65897;BME280;52677;50.898;10.854;2023-05-29T01:31:09;98858.59;;;6.84;100.00
65897;BME280;52677;50.898;10.854;2023-05-29T01:33:11;98853.66;;;6.77;100.00
65897;BME280;52677;50.898;10.854;2023-05-29T01:35:12;98845.19;;;6.70;100.00
65897;BME280;52677;50.898;10.854;2023-05-29T01:37:12;98838.88;;;6.69;100.00
65897;BME280;52677;50.898;10.854;2023-05-29T01:39:13;98837.53;;;6.63;100.00
65897;BME280;52677;50.898;10.854;2023-05-29T01:41:15;98841.31;;;6.71;100.00
65897;BME280;52677;50.898;10.854;2023-05-29T01:43:17;98841.63;;;6.69;100.00
65897;BME280;52677;50.898;10.854;2023-05-29T01:45:17;98844.28;;;6.66;100.00
65897;BME280;52677;50.898;10.854;2023-05-29T01:47:18;98841.75;;;6.61;100.00
65897;BME280;52677;50.898;10.854;2023-05-29T01:49:19;98839.25;;;6.56;100.00
65897;BME280;52677;50.898;10.854;2023-05-29T01:51:20;98833.59;;;6.52;100.00
65897;BME280;52677;50.898;10.854;2023-05-29T01:53:20;98840.16;;;6.47;100.00
65897;BME280;52677;50.898;10.854;2023-05-29T01:55:22;98849.91;;;6.57;100.00
65897;BME280;52677;50.898;10.854;2023-05-29T01:57:23;98841.09;;;6.64;100.00
65897;BME280;52677;50.898;10.854;2023-05-29T01:59:26;98833.88;;;6.71;100.00
65897;BME280;52677;50.898;10.854;2023-05-29T02:01:26;98841.19;;;6.80;100.00
65897;BME280;52677;50.898;10.854;2023-05-29T02:03:27;98842.44;;;6.82;100.00
65897;BME280;52677;50.898;10.854;2023-05-29T02:05:30;98842.22;;;6.87;100.00
65897;BME280;52677;50.898;10.854;2023-05-29T02:07:30;98844.06;;;6.83;100.00
65897;BME280;52677;50.898;10.854;2023-05-29T02:09:31;98844.84;;;6.84;100.00
65897;BME280;52677;50.898;10.854;2023-05-29T02:11:31;98844.41;;;6.82;100.00
65897;BME280;52677;50.898;10.854;2023-05-29T02:13:31;98842.44;;;6.82;100.00
65897;BME280;52677;50.898;10.854;2023-05-29T02:15:32;98845.56;;;6.81;100.00
65897;BME280;52677;50.898;10.854;2023-05-29T02:17:32;98844.63;;;6.64;100.00
65897;BME280;52677;50.898;10.854;2023-05-29T02:19:33;98848.97;;;6.53;100.00
65897;BME280;52677;50.898;10.854;2023-05-29T02:21:33;98847.56;;;6.35;100.00
65897;BME280;52677;50.898;10.854;2023-05-29T02:23:33;98852.25;;;6.22;100.00
65897;BME280;52677;50.898;10.854;2023-05-29T02:25:34;98854.59;;;6.11;100.00
65897;BME280;52677;50.898;10.854;2023-05-29T02:27:34;98852.53;;;6.08;100.00
65897;BME280;52677;50.898;10.854;2023-05-29T02:29:34;98852.28;;;6.01;100.00
65897;BME280;52677;50.898;10.854;2023-05-29T02:31:35;98858.13;;;6.00;100.00
65897;BME280;52677;50.898;10.854;2023-05-29T02:33:35;98863.28;;;6.01;100.00
65897;BME280;52677;50.898;10.854;2023-05-29T02:35:35;98859.81;;;5.92;100.00
65897;BME280;52677;50.898;10.854;2023-05-29T02:37:36;98869.03;;;5.87;100.00
65897;BME280;52677;50.898;10.854;2023-05-29T02:39:36;98869.03;;;5.87;100.00
65897;BME280;52677;50.898;10.854;2023-05-29T02:41:37;98858.59;;;5.81;100.00
65897;BME280;52677;50.898;10.854;2023-05-29T02:43:37;98867.19;;;5.79;100.00
65897;BME280;52677;50.898;10.854;2023-05-29T02:45:37;98862.34;;;5.76;100.00
65897;BME280;52677;50.898;10.854;2023-05-29T02:47:38;98867.72;;;5.73;100.00
65897;BME280;52677;50.898;10.854;2023-05-29T02:49:38;98872.16;;;5.65;100.00
65897;BME280;52677;50.898;10.854;2023-05-29T02:51:39;98869.94;;;5.58;100.00
65897;BME280;52677;50.898;10.854;2023-05-29T02:53:39;98876.56;;;5.57;100.00
65897;BME280;52677;50.898;10.854;2023-05-29T02:55:40;98871.88;;;5.58;100.00
65897;BME280;52677;50.898;10.854;2023-05-29T02:57:40;98869.81;;;5.55;100.00
65897;BME280;52677;50.898;10.854;2023-05-29T02:59:41;98876.41;;;5.54;100.00
65897;BME280;52677;50.898;10.854;2023-05-29T03:01:41;98875.09;;;5.60;100.00
65897;BME280;52677;50.898;10.854;2023-05-29T03:03:42;98873.81;;;5.57;100.00
65897;BME280;52677;50.898;10.854;2023-05-29T03:05:43;98884.00;;;5.57;100.00
65897;BME280;52677;50.898;10.854;2023-05-29T03:07:43;98882.72;;;5.54;100.00
65897;BME280;52677;50.898;10.854;2023-05-29T03:09:44;98890.47;;;5.52;100.00
65897;BME280;52677;50.898;10.854;2023-05-29T03:11:45;98881.66;;;5.47;100.00
65897;BME280;52677;50.898;10.854;2023-05-29T03:13:45;98886.34;;;5.46;100.00
65897;BME280;52677;50.898;10.854;2023-05-29T03:15:47;98885.88;;;5.44;100.00
65897;BME280;52677;50.898;10.854;2023-05-29T03:17:47;98897.00;;;5.48;100.00
65897;BME280;52677;50.898;10.854;2023-05-29T03:19:48;98892.31;;;5.48;100.00
65897;BME280;52677;50.898;10.854;2023-05-29T03:21:48;98895.50;;;5.50;100.00
65897;BME280;52677;50.898;10.854;2023-05-29T03:23:48;98902.41;;;5.56;100.00
65897;BME280;52677;50.898;10.854;2023-05-29T03:25:49;98904.00;;;5.57;100.00
65897;BME280;52677;50.898;10.854;2023-05-29T03:27:49;98905.81;;;5.53;100.00
65897;BME280;52677;50.898;10.854;2023-05-29T03:29:49;98914.38;;;5.52;100.00
65897;BME280;52677;50.898;10.854;2023-05-29T03:31:49;98916.66;;;5.50;100.00
65897;BME280;52677;50.898;10.854;2023-05-29T03:33:50;98923.75;;;5.51;100.00
65897;BME280;52677;50.898;10.854;2023-05-29T03:35:50;98914.59;;;5.47;100.00
65897;BME280;52677;50.898;10.854;2023-05-29T03:37:50;98924.91;;;5.50;100.00
65897;BME280;52677;50.898;10.854;2023-05-29T03:39:51;98922.84;;;5.47;100.00
65897;BME280;52677;50.898;10.854;2023-05-29T03:41:51;98917.66;;;5.45;100.00
65897;BME280;52677;50.898;10.854;2023-05-29T03:43:51;98917.19;;;5.43;100.00
65897;BME280;52677;50.898;10.854;2023-05-29T03:45:52;98924.28;;;5.44;100.00
65897;BME280;52677;50.898;10.854;2023-05-29T03:47:52;98926.03;;;5.49;100.00
65897;BME280;52677;50.898;10.854;2023-05-29T03:49:52;98930.06;;;5.51;100.00
65897;BME280;52677;50.898;10.854;2023-05-29T03:51:53;98926.63;;;5.54;100.00
65897;BME280;52677;50.898;10.854;2023-05-29T03:53:53;98926.91;;;5.61;100.00
65897;BME280;52677;50.898;10.854;2023-05-29T03:55:53;98924.44;;;5.69;100.00
65897;BME280;52677;50.898;10.854;2023-05-29T03:57:54;98935.75;;;5.88;100.00
65897;BME280;52677;50.898;10.854;2023-05-29T03:59:54;98937.19;;;5.94;100.00
65897;BME280;52677;50.898;10.854;2023-05-29T04:01:55;98936.97;;;5.99;100.00
65897;BME280;52677;50.898;10.854;2023-05-29T04:03:55;98940.88;;;5.98;100.00
65897;BME280;52677;50.898;10.854;2023-05-29T04:05:56;98941.69;;;5.99;100.00
65897;BME280;52677;50.898;10.854;2023-05-29T04:07:56;98951.19;;;6.01;100.00
65897;BME280;52677;50.898;10.854;2023-05-29T04:09:56;98950.38;;;6.01;100.00
65897;BME280;52677;50.898;10.854;2023-05-29T04:11:57;98953.94;;;6.01;100.00
65897;BME280;52677;50.898;10.854;2023-05-29T04:13:57;98951.09;;;6.10;100.00
65897;BME280;52677;50.898;10.854;2023-05-29T04:15:57;98953.13;;;6.22;100.00
65897;BME280;52677;50.898;10.854;2023-05-29T04:17:58;98962.72;;;6.28;100.00
65897;BME280;52677;50.898;10.854;2023-05-29T04:19:58;98965.28;;;6.33;100.00
65897;BME280;52677;50.898;10.854;2023-05-29T04:21:59;98957.63;;;6.38;100.00
65897;BME280;52677;50.898;10.854;2023-05-29T04:24:00;98971.88;;;6.53;100.00
65897;BME280;52677;50.898;10.854;2023-05-29T04:26:00;98969.16;;;6.65;100.00
65897;BME280;52677;50.898;10.854;2023-05-29T04:28:05;98968.28;;;6.85;100.00
65897;BME280;52677;50.898;10.854;2023-05-29T04:30:07;98975.19;;;7.03;100.00
65897;BME280;52677;50.898;10.854;2023-05-29T04:32:09;98971.88;;;7.22;100.00
65897;BME280;52677;50.898;10.854;2023-05-29T04:34:11;98970.41;;;7.37;100.00
65897;BME280;52677;50.898;10.854;2023-05-29T04:36:11;98975.88;;;7.49;100.00
65897;BME280;52677;50.898;10.854;2023-05-29T04:38:11;98978.28;;;7.63;100.00
65897;BME280;52677;50.898;10.854;2023-05-29T04:40:13;98980.66;;;7.77;100.00
65897;BME280;52677;50.898;10.854;2023-05-29T04:42:17;98967.53;;;7.86;100.00
65897;BME280;52677;50.898;10.854;2023-05-29T04:44:18;98983.25;;;7.98;100.00
65897;BME280;52677;50.898;10.854;2023-05-29T04:46:18;98982.09;;;8.11;100.00
65897;BME280;52677;50.898;10.854;2023-05-29T04:48:19;98981.13;;;8.19;100.00
65897;BME280;52677;50.898;10.854;2023-05-29T04:50:19;98989.34;;;8.31;100.00
65897;BME280;52677;50.898;10.854;2023-05-29T04:52:20;98986.56;;;8.43;100.00
65897;BME280;52677;50.898;10.854;2023-05-29T04:54:23;98986.16;;;8.57;100.00
65897;BME280;52677;50.898;10.854;2023-05-29T04:56:24;99002.69;;;8.69;100.00
65897;BME280;52677;50.898;10.854;2023-05-29T04:58:25;98989.16;;;8.80;100.00
65897;BME280;52677;50.898;10.854;2023-05-29T05:00:26;98990.94;;;8.88;100.00
65897;BME280;52677;50.898;10.854;2023-05-29T05:02:27;98992.75;;;8.96;100.00
65897;BME280;52677;50.898;10.854;2023-05-29T05:04:27;98989.44;;;9.07;100.00
65897;BME280;52677;50.898;10.854;2023-05-29T05:06:27;99000.41;;;9.19;100.00
65897;BME280;52677;50.898;10.854;2023-05-29T05:08:29;98998.78;;;9.34;100.00
65897;BME280;52677;50.898;10.854;2023-05-29T05:10:30;98992.28;;;9.42;100.00
65897;BME280;52677;50.898;10.854;2023-05-29T05:12:30;98997.63;;;9.50;100.00
65897;BME280;52677;50.898;10.854;2023-05-29T05:14:31;99000.66;;;9.61;100.00
65897;BME280;52677;50.898;10.854;2023-05-29T05:16:31;98998.13;;;9.72;100.00
65897;BME280;52677;50.898;10.854;2023-05-29T05:18:33;99000.34;;;9.82;100.00
65897;BME280;52677;50.898;10.854;2023-05-29T05:20:33;98997.81;;;9.93;100.00
65897;BME280;52677;50.898;10.854;2023-05-29T05:22:33;98999.22;;;10.02;100.00
65897;BME280;52677;50.898;10.854;2023-05-29T05:24:34;98997.09;;;10.15;100.00
65897;BME280;52677;50.898;10.854;2023-05-29T05:26:35;98994.59;;;10.26;100.00
65897;BME280;52677;50.898;10.854;2023-05-29T05:28:35;98991.28;;;10.36;100.00
65897;BME280;52677;50.898;10.854;2023-05-29T05:30:35;99000.94;;;10.46;100.00
65897;BME280;52677;50.898;10.854;2023-05-29T05:32:36;98992.41;;;10.54;100.00
65897;BME280;52677;50.898;10.854;2023-05-29T05:34:36;98999.28;;;10.60;100.00
65897;BME280;52677;50.898;10.854;2023-05-29T05:36:36;99002.97;;;10.68;100.00
65897;BME280;52677;50.898;10.854;2023-05-29T05:38:37;99004.72;;;10.76;100.00
65897;BME280;52677;50.898;10.854;2023-05-29T05:40:37;99005.63;;;10.84;100.00
65897;BME280;52677;50.898;10.854;2023-05-29T05:42:37;99009.03;;;10.96;100.00
65897;BME280;52677;50.898;10.854;2023-05-29T05:44:38;98989.41;;;11.05;100.00
65897;BME280;52677;50.898;10.854;2023-05-29T05:46:38;99007.09;;;11.20;100.00
65897;BME280;52677;50.898;10.854;2023-05-29T05:48:40;99004.06;;;11.29;100.00
65897;BME280;52677;50.898;10.854;2023-05-29T05:50:40;98997.47;;;11.37;100.00
65897;BME280;52677;50.898;10.854;2023-05-29T05:52:41;99004.72;;;11.45;100.00
65897;BME280;52677;50.898;10.854;2023-05-29T05:54:41;99006.94;;;11.59;100.00
65897;BME280;52677;50.898;10.854;2023-05-29T05:56:42;99002.28;;;11.66;100.00
65897;BME280;52677;50.898;10.854;2023-05-29T05:58:42;99009.19;;;11.76;100.00
65897;BME280;52677;50.898;10.854;2023-05-29T06:00:42;99015.66;;;11.84;100.00
65897;BME280;52677;50.898;10.854;2023-05-29T06:02:43;99005.84;;;11.90;100.00
65897;BME280;52677;50.898;10.854;2023-05-29T06:04:45;99010.31;;;11.98;100.00
65897;BME280;52677;50.898;10.854;2023-05-29T06:06:46;99006.44;;;12.02;100.00
65897;BME280;52677;50.898;10.854;2023-05-29T06:08:46;99008.94;;;12.11;100.00
65897;BME280;52677;50.898;10.854;2023-05-29T06:10:47;99002.22;;;12.16;100.00
65897;BME280;52677;50.898;10.854;2023-05-29T06:12:47;99005.50;;;12.21;100.00
65897;BME280;52677;50.898;10.854;2023-05-29T06:14:47;99005.97;;;12.27;100.00
65897;BME280;52677;50.898;10.854;2023-05-29T06:16:48;99010.75;;;12.30;100.00
65897;BME280;52677;50.898;10.854;2023-05-29T06:18:48;99010.84;;;12.37;100.00
65897;BME280;52677;50.898;10.854;2023-05-29T06:20:48;99010.25;;;12.51;100.00
65897;BME280;52677;50.898;10.854;2023-05-29T06:22:49;99026.63;;;12.63;100.00
65897;BME280;52677;50.898;10.854;2023-05-29T06:24:50;99029.13;;;12.72;100.00
65897;BME280;52677;50.898;10.854;2023-05-29T06:26:51;99026.00;;;12.77;100.00
65897;BME280;52677;50.898;10.854;2023-05-29T06:28:51;99029.28;;;12.86;100.00
65897;BME280;52677;50.898;10.854;2023-05-29T06:30:52;99028.13;;;12.90;100.00
65897;BME280;52677;50.898;10.854;2023-05-29T06:32:52;99026.97;;;12.91;100.00
65897;BME280;52677;50.898;10.854;2023-05-29T06:34:53;99028.66;;;13.00;100.00
65897;BME280;52677;50.898;10.854;2023-05-29T06:36:53;99032.66;;;13.06;100.00
65897;BME280;52677;50.898;10.854;2023-05-29T06:38:53;99033.94;;;13.15;100.00
65897;BME280;52677;50.898;10.854;2023-05-29T06:40:54;99044.41;;;13.26;100.00
65897;BME280;52677;50.898;10.854;2023-05-29T06:42:54;99040.53;;;13.34;100.00
65897;BME280;52677;50.898;10.854;2023-05-29T06:44:54;99037.00;;;13.40;100.00
65897;BME280;52677;50.898;10.854;2023-05-29T06:46:55;99042.59;;;13.44;100.00
65897;BME280;52677;50.898;10.854;2023-05-29T06:48:55;99044.22;;;13.48;100.00
65897;BME280;52677;50.898;10.854;2023-05-29T06:50:55;99034.66;;;13.46;100.00
65897;BME280;52677;50.898;10.854;2023-05-29T06:52:56;99035.50;;;13.50;100.00
65897;BME280;52677;50.898;10.854;2023-05-29T06:54:56;99031.22;;;13.60;100.00
65897;BME280;52677;50.898;10.854;2023-05-29T06:56:56;99040.75;;;13.62;100.00
65897;BME280;52677;50.898;10.854;2023-05-29T06:58:57;99024.53;;;13.68;100.00
65897;BME280;52677;50.898;10.854;2023-05-29T07:03:35;99040.09;;;13.80;100.00
65897;BME280;52677;50.898;10.854;2023-05-29T07:05:36;99035.44;;;13.91;100.00
65897;BME280;52677;50.898;10.854;2023-05-29T07:07:37;99041.03;;;13.98;100.00
65897;BME280;52677;50.898;10.854;2023-05-29T07:09:37;99038.66;;;14.00;100.00
65897;BME280;52677;50.898;10.854;2023-05-29T07:11:39;99039.47;;;14.00;100.00
65897;BME280;52677;50.898;10.854;2023-05-29T07:13:39;99048.97;;;13.96;99.40
65897;BME280;52677;50.898;10.854;2023-05-29T07:15:40;99047.03;;;14.03;99.01
65897;BME280;52677;50.898;10.854;2023-05-29T07:17:40;99046.59;;;13.98;100.00
65897;BME280;52677;50.898;10.854;2023-05-29T07:19:41;99043.44;;;14.03;98.84
65897;BME280;52677;50.898;10.854;2023-05-29T07:21:41;99031.13;;;14.00;99.22
65897;BME280;52677;50.898;10.854;2023-05-29T07:23:41;99045.03;;;14.00;98.54
65897;BME280;52677;50.898;10.854;2023-05-29T07:25:42;99036.69;;;14.04;98.99
65897;BME280;52677;50.898;10.854;2023-05-29T07:27:42;99042.69;;;14.10;99.66
65897;BME280;52677;50.898;10.854;2023-05-29T07:29:42;99043.16;;;14.15;100.00
65897;BME280;52677;50.898;10.854;2023-05-29T07:31:43;99037.94;;;14.10;98.65
65897;BME280;52677;50.898;10.854;2023-05-29T07:33:44;99038.06;;;14.31;97.71
65897;BME280;52677;50.898;10.854;2023-05-29T07:35:48;99041.22;;;14.26;96.64
65897;BME280;52677;50.898;10.854;2023-05-29T07:37:48;99040.09;;;14.42;97.72
65897;BME280;52677;50.898;10.854;2023-05-29T07:39:49;99040.09;;;14.42;96.68
65897;BME280;52677;50.898;10.854;2023-05-29T07:41:50;99038.59;;;14.51;99.18
65897;BME280;52677;50.898;10.854;2023-05-29T07:43:50;99030.22;;;14.51;94.20
65897;BME280;52677;50.898;10.854;2023-05-29T07:45:52;99039.03;;;14.60;94.60
65897;BME280;52677;50.898;10.854;2023-05-29T07:47:52;99040.66;;;14.65;96.01
65897;BME280;52677;50.898;10.854;2023-05-29T07:49:52;99041.03;;;14.67;93.92
65897;BME280;52677;50.898;10.854;2023-05-29T07:51:53;99036.28;;;14.68;92.84
65897;BME280;52677;50.898;10.854;2023-05-29T07:53:53;99037.50;;;14.74;92.77
65897;BME280;52677;50.898;10.854;2023-05-29T07:55:53;99042.28;;;14.77;93.12
65897;BME280;52677;50.898;10.854;2023-05-29T07:57:54;99039.09;;;14.78;91.64
65897;BME280;52677;50.898;10.854;2023-05-29T07:59:54;99035.53;;;14.81;91.93
65897;BME280;52677;50.898;10.854;2023-05-29T08:01:55;99050.25;;;14.85;90.76
65897;BME280;52677;50.898;10.854;2023-05-29T08:03:58;99047.53;;;15.00;94.73
65897;BME280;52677;50.898;10.854;2023-05-29T08:05:58;99058.69;;;15.10;90.63
65897;BME280;52677;50.898;10.854;2023-05-29T08:07:58;99042.78;;;15.18;91.61
65897;BME280;52677;50.898;10.854;2023-05-29T08:09:59;99050.75;;;15.20;90.67
65897;BME280;52677;50.898;10.854;2023-05-29T08:11:59;99049.97;;;15.30;91.30
65897;BME280;52677;50.898;10.854;2023-05-29T08:14:01;99053.56;;;15.34;91.44
65897;BME280;52677;50.898;10.854;2023-05-29T08:16:01;99050.78;;;15.41;93.47
65897;BME280;52677;50.898;10.854;2023-05-29T08:18:01;99061.16;;;15.51;93.90
65897;BME280;52677;50.898;10.854;2023-05-29T08:20:02;99050.78;;;15.55;91.26
65897;BME280;52677;50.898;10.854;2023-05-29T08:22:06;99059.59;;;15.75;93.73
65897;BME280;52677;50.898;10.854;2023-05-29T08:24:06;99056.41;;;15.66;89.01
65897;BME280;52677;50.898;10.854;2023-05-29T08:26:06;99062.41;;;15.68;89.69
65897;BME280;52677;50.898;10.854;2023-05-29T08:28:07;99062.78;;;15.70;89.28
65897;BME280;52677;50.898;10.854;2023-05-29T08:30:08;99062.81;;;15.73;89.18
65897;BME280;52677;50.898;10.854;2023-05-29T08:32:10;99062.81;;;15.73;90.28
65897;BME280;52677;50.898;10.854;2023-05-29T08:34:10;99064.41;;;15.82;89.47
65897;BME280;52677;50.898;10.854;2023-05-29T08:36:10;99058.81;;;15.82;88.02
65897;BME280;52677;50.898;10.854;2023-05-29T08:38:11;99062.38;;;15.79;89.41
65897;BME280;52677;50.898;10.854;2023-05-29T08:40:11;99065.97;;;15.93;88.14
65897;BME280;52677;50.898;10.854;2023-05-29T08:42:21;99065.19;;;16.00;87.59
65897;BME280;52677;50.898;10.854;2023-05-29T08:44:22;99068.34;;;16.13;88.50
65897;BME280;52677;50.898;10.854;2023-05-29T08:46:23;99061.19;;;16.08;88.19
65897;BME280;52677;50.898;10.854;2023-05-29T08:48:24;99061.59;;;16.07;86.95
65897;BME280;52677;50.898;10.854;2023-05-29T08:50:25;99063.16;;;16.04;88.02
65897;BME280;52677;50.898;10.854;2023-05-29T08:52:26;99065.94;;;16.04;86.35
65897;BME280;52677;50.898;10.854;2023-05-29T08:54:31;99072.34;;;16.22;86.32
65897;BME280;52677;50.898;10.854;2023-05-29T08:56:32;99058.34;;;16.26;84.76
65897;BME280;52677;50.898;10.854;2023-05-29T08:58:34;99063.53;;;16.35;84.54
65897;BME280;52677;50.898;10.854;2023-05-29T09:00:34;99065.53;;;16.31;82.83
65897;BME280;52677;50.898;10.854;2023-05-29T09:02:34;99059.53;;;16.36;83.51
65897;BME280;52677;50.898;10.854;2023-05-29T09:04:37;99055.91;;;16.46;83.44
65897;BME280;52677;50.898;10.854;2023-05-29T09:06:38;99057.88;;;16.56;83.98
65897;BME280;52677;50.898;10.854;2023-05-29T09:08:41;99056.28;;;16.58;84.41
65897;BME280;52677;50.898;10.854;2023-05-29T09:10:42;99054.25;;;16.63;83.70
65897;BME280;52677;50.898;10.854;2023-05-29T09:12:46;99060.63;;;16.63;84.39
65897;BME280;52677;50.898;10.854;2023-05-29T09:14:47;99054.63;;;16.68;84.95
65897;BME280;52677;50.898;10.854;2023-05-29T09:16:48;99053.84;;;16.71;84.97
65897;BME280;52677;50.898;10.854;2023-05-29T09:18:48;99058.59;;;16.85;84.72
65897;BME280;52677;50.898;10.854;2023-05-29T09:20:48;99062.97;;;16.86;83.05
65897;BME280;52677;50.898;10.854;2023-05-29T09:24:53;99057.44;;;16.75;83.31
65897;BME280;52677;50.898;10.854;2023-05-29T09:26:54;99058.59;;;16.89;85.39
65897;BME280;52677;50.898;10.854;2023-05-29T09:28:55;99050.53;;;17.05;83.63
65897;BME280;52677;50.898;10.854;2023-05-29T09:30:56;99059.66;;;17.09;83.45
65897;BME280;52677;50.898;10.854;2023-05-29T09:32:59;99059.22;;;17.18;84.18
65897;BME280;52677;50.898;10.854;2023-05-29T09:35:00;99064.41;;;17.23;86.53
65897;BME280;52677;50.898;10.854;2023-05-29T09:37:05;99069.88;;;17.40;85.97
65897;BME280;52677;50.898;10.854;2023-05-29T09:39:09;99058.31;;;17.38;81.41
65897;BME280;52677;50.898;10.854;2023-05-29T09:41:10;99063.09;;;17.38;82.88
65897;BME280;52677;50.898;10.854;2023-05-29T09:43:12;99065.94;;;17.27;84.56
65897;BME280;52677;50.898;10.854;2023-05-29T09:45:17;99060.31;;;17.34;82.80
65897;BME280;52677;50.898;10.854;2023-05-29T09:47:18;99069.03;;;17.44;83.10
65897;BME280;52677;50.898;10.854;2023-05-29T09:49:22;99055.03;;;17.47;85.24
65897;BME280;52677;50.898;10.854;2023-05-29T09:51:23;99059.81;;;17.50;84.22
65897;BME280;52677;50.898;10.854;2023-05-29T09:53:25;99064.09;;;17.62;84.26
65897;BME280;52677;50.898;10.854;2023-05-29T09:55:27;99060.47;;;17.68;83.67
65897;BME280;52677;50.898;10.854;2023-05-29T09:57:29;99061.22;;;17.80;82.58
65897;BME280;52677;50.898;10.854;2023-05-29T09:59:29;99061.56;;;17.85;79.45
65897;BME280;52677;50.898;10.854;2023-05-29T10:01:31;99055.16;;;17.88;80.84
65897;BME280;52677;50.898;10.854;2023-05-29T10:03:32;99058.69;;;17.92;79.60
65897;BME280;52677;50.898;10.854;2023-05-29T10:05:34;99054.75;;;17.86;79.51
65897;BME280;52677;50.898;10.854;2023-05-29T10:07:36;99048.31;;;17.93;80.10
65897;BME280;52677;50.898;10.854;2023-05-29T10:09:42;99043.31;;;18.11;83.33
65897;BME280;52677;50.898;10.854;2023-05-29T10:11:47;99041.53;;;18.28;84.09
65897;BME280;52677;50.898;10.854;2023-05-29T10:13:48;99045.41;;;18.41;82.29
65897;BME280;52677;50.898;10.854;2023-05-29T10:15:51;99040.59;;;18.45;78.64
65897;BME280;52677;50.898;10.854;2023-05-29T10:18:01;99043.34;;;18.49;78.64
65897;BME280;52677;50.898;10.854;2023-05-29T10:20:09;99033.25;;;18.55;76.96
65897;BME280;52677;50.898;10.854;2023-05-29T10:22:13;99044.41;;;18.62;80.12
65897;BME280;52677;50.898;10.854;2023-05-29T10:24:16;99040.22;;;18.77;80.83
65897;BME280;52677;50.898;10.854;2023-05-29T10:26:22;99040.91;;;18.85;81.18
65897;BME280;52677;50.898;10.854;2023-05-29T10:28:25;99038.78;;;18.96;78.64
65897;BME280;52677;50.898;10.854;2023-05-29T10:30:38;99038.28;;;19.01;75.77
65897;BME280;52677;50.898;10.854;2023-05-29T10:37:16;99029.97;;;18.94;74.61
65897;BME280;52677;50.898;10.854;2023-05-29T10:39:21;99029.47;;;19.03;73.97
65897;BME280;52677;50.898;10.854;2023-05-29T10:41:28;99016.53;;;19.13;77.57
65897;BME280;52677;50.898;10.854;2023-05-29T10:43:33;99033.53;;;19.29;74.86
65897;BME280;52677;50.898;10.854;2023-05-29T10:47:40;99039.16;;;19.25;73.66
65897;BME280;52677;50.898;10.854;2023-05-29T10:49:49;99026.78;;;19.23;75.73